Calvin, North Dakota
Current Conditions -  °F | °C
As of 2:35 AM on Monday 22 Dec 2014 (Local Time) from KD55 Reporting Station
Haze Haze  
Wind Chill: 21°   Ceiling: 200
Heat Index: 30°   Visibility: 2.5mi
Dew Point: 30°   Wind: 12mph
Humidity: 100%   Direction: 140°SE
Pressure: 29.5"   Gusts: NA
Location:  48.85°N, 98.94°W
Report Text: KD55 220835Z AUTO 14010KT 2 1/2SM BR OVC002 M01/M01 A2950 RMK AO2
Loading
Personal Weather Stations






























Interactive Weather Map New forecast layout! Learn more

10-Day Weather Forecast

Advertisements
Track Severe Weather on mobile